createdAt,value
2018-12-25T00:00:36.342Z,84.20
2018-12-25T00:03:05.501Z,84.40
2018-12-25T00:05:34.745Z,84.30
2018-12-25T00:08:04.001Z,84.40
2018-12-25T00:10:33.229Z,84.40
2018-12-25T00:13:02.507Z,84.50
2018-12-25T00:15:31.765Z,84.60
2018-12-25T00:18:01.101Z,84.70
2018-12-25T00:20:30.361Z,84.80
2018-12-25T00:22:59.637Z,84.80
2018-12-25T00:25:28.863Z,84.80
2018-12-25T00:27:58.665Z,84.80
2018-12-25T00:30:28.036Z,85.00
2018-12-25T00:32:57.333Z,85.10
2018-12-25T00:35:26.600Z,85.10
2018-12-25T00:37:55.880Z,85.20
2018-12-25T00:40:25.144Z,85.20
2018-12-25T00:42:54.378Z,85.20
2018-12-25T00:45:23.688Z,85.20
2018-12-25T00:47:52.920Z,85.30
2018-12-25T00:50:22.180Z,85.30
2018-12-25T00:52:51.452Z,85.40
2018-12-25T00:55:20.696Z,85.50
2018-12-25T00:57:49.964Z,85.50
2018-12-25T01:00:19.203Z,85.50
2018-12-25T01:02:48.488Z,85.50
2018-12-25T01:05:17.788Z,85.60
2018-12-25T01:07:47.164Z,85.60
2018-12-25T01:10:16.416Z,85.70
2018-12-25T01:12:45.688Z,85.70
2018-12-25T01:15:14.928Z,85.80
2018-12-25T01:17:44.196Z,85.80
2018-12-25T01:20:13.424Z,85.80
2018-12-25T01:22:42.723Z,86.00
2018-12-25T01:25:11.991Z,86.10
2018-12-25T01:27:41.436Z,86.20
2018-12-25T01:30:10.777Z,86.20
2018-12-25T01:32:40.068Z,86.20
2018-12-25T01:35:09.298Z,86.30
2018-12-25T01:37:38.643Z,86.80
2018-12-25T01:40:07.987Z,86.40
2018-12-25T01:42:37.255Z,86.50
2018-12-25T01:45:06.544Z,86.60
2018-12-25T01:47:35.831Z,86.60
2018-12-25T01:50:05.357Z,86.80
2018-12-25T01:52:34.615Z,87.00
2018-12-25T01:55:03.898Z,87.10
2018-12-25T01:57:33.167Z,87.20
2018-12-25T02:00:02.392Z,87.10
2018-12-25T02:02:31.667Z,87.10
2018-12-25T02:05:00.911Z,87.20
2018-12-25T02:07:30.132Z,87.30
2018-12-25T02:09:59.407Z,87.30
2018-12-25T02:12:28.707Z,87.40
2018-12-25T02:14:57.975Z,87.40
2018-12-25T02:17:27.270Z,87.60
2018-12-25T02:19:56.427Z,87.70
2018-12-25T02:22:25.654Z,87.60
2018-12-25T02:24:54.942Z,87.70
2018-12-25T02:27:24.174Z,87.80
2018-12-25T02:29:53.447Z,87.80
2018-12-25T02:32:22.699Z,87.80
2018-12-25T02:34:52.043Z,87.80
2018-12-25T02:37:21.287Z,87.80
2018-12-25T02:39:50.555Z,88.00
2018-12-25T02:42:19.831Z,88.10
2018-12-25T02:44:49.059Z,88.10
2018-12-25T02:47:18.323Z,88.20
2018-12-25T02:49:50.365Z,88.30
2018-12-25T02:52:18.467Z,88.30
2018-12-25T02:54:47.759Z,88.30
2018-12-25T02:57:17.071Z,88.50
2018-12-25T02:59:46.291Z,88.60
2018-12-25T03:02:15.556Z,88.70
2018-12-25T03:04:44.803Z,88.70
2018-12-25T03:07:14.065Z,88.80
2018-12-25T03:09:43.274Z,88.80
2018-12-25T03:12:12.616Z,89.60
2018-12-25T03:14:42.127Z,88.90
2018-12-25T03:17:11.382Z,88.90
2018-12-25T03:19:40.641Z,88.90
2018-12-25T03:22:09.902Z,88.90
2018-12-25T03:24:39.147Z,88.90
2018-12-25T03:27:08.418Z,89.00
2018-12-25T03:29:37.653Z,88.90
2018-12-25T03:32:06.958Z,88.90
2018-12-25T03:34:36.227Z,88.90
2018-12-25T03:37:05.526Z,88.80
2018-12-25T03:39:34.747Z,88.90
2018-12-25T03:42:03.968Z,89.70
2018-12-25T03:44:33.313Z,89.00
2018-12-25T03:47:02.540Z,88.90
2018-12-25T03:49:31.806Z,89.00
2018-12-25T03:52:01.075Z,89.10
2018-12-25T03:54:30.407Z,89.10
2018-12-25T03:56:59.691Z,89.20
2018-12-25T03:59:28.980Z,89.20
2018-12-25T04:01:58.227Z,89.20
2018-12-25T04:04:27.512Z,89.20
2018-12-25T04:06:56.762Z,89.20
2018-12-25T04:09:26.060Z,89.30
2018-12-25T04:11:55.287Z,89.40
2018-12-25T04:14:24.555Z,89.50
2018-12-25T04:16:53.829Z,89.40
2018-12-25T04:19:23.030Z,89.30
2018-12-25T04:21:52.301Z,89.40
2018-12-25T04:24:21.502Z,89.50
2018-12-25T04:26:50.737Z,89.60
2018-12-25T04:29:20.004Z,89.60
2018-12-25T04:31:49.309Z,89.60
2018-12-25T04:34:18.580Z,89.70
2018-12-25T04:36:47.813Z,89.70
2018-12-25T04:39:17.457Z,89.70
2018-12-25T04:41:46.734Z,89.70
2018-12-25T04:44:15.969Z,89.60
2018-12-25T04:46:45.249Z,89.70
2018-12-25T04:49:14.517Z,89.70
2018-12-25T04:51:43.821Z,89.80
2018-12-25T04:54:13.065Z,89.80
2018-12-25T04:56:42.337Z,89.90
2018-12-25T04:59:11.586Z,90.00
2018-12-25T05:01:41.196Z,90.00
2018-12-25T05:04:10.433Z,90.00
2018-12-25T05:06:39.673Z,90.00
2018-12-25T05:09:08.932Z,90.00
2018-12-25T05:11:38.175Z,90.10
2018-12-25T05:14:07.440Z,90.00
2018-12-25T05:16:36.680Z,90.00
2018-12-25T05:19:06.136Z,90.10
2018-12-25T05:21:35.448Z,90.20
2018-12-25T05:24:04.688Z,90.10
2018-12-25T05:26:33.976Z,90.20
2018-12-25T05:29:03.207Z,90.30
2018-12-25T05:31:32.479Z,90.10
2018-12-25T05:34:01.752Z,90.20
2018-12-25T05:36:30.983Z,90.10
2018-12-25T05:39:00.263Z,90.10
2018-12-25T05:41:29.582Z,90.20
2018-12-25T05:43:58.896Z,90.20
2018-12-25T05:46:28.168Z,90.30
2018-12-25T05:48:57.549Z,90.20
2018-12-25T05:51:26.744Z,90.20
2018-12-25T05:53:56.024Z,90.20
2018-12-25T05:56:25.402Z,90.20
2018-12-25T05:58:54.666Z,90.20
2018-12-25T06:01:23.976Z,90.10
2018-12-25T06:03:53.215Z,90.10
2018-12-25T06:06:22.485Z,90.20
2018-12-25T06:08:51.731Z,90.10
2018-12-25T06:11:20.963Z,90.10
2018-12-25T06:13:50.247Z,90.10
2018-12-25T06:16:19.488Z,90.20
2018-12-25T06:18:48.763Z,90.20
2018-12-25T06:21:18.003Z,90.20
2018-12-25T06:23:47.231Z,90.10
2018-12-25T06:26:16.514Z,90.10
2018-12-25T06:28:45.815Z,90.10
2018-12-25T06:31:15.047Z,90.10
2018-12-25T06:33:44.399Z,90.20
2018-12-25T06:36:13.700Z,90.10
2018-12-25T06:38:42.932Z,90.20
2018-12-25T06:41:12.186Z,90.30
2018-12-25T06:43:41.447Z,90.40
2018-12-25T06:46:10.727Z,90.40
2018-12-25T06:48:40.007Z,90.50
2018-12-25T06:51:09.245Z,90.50
2018-12-25T06:53:38.607Z,90.60
2018-12-25T06:56:07.875Z,90.70
2018-12-25T06:58:37.143Z,90.70
2018-12-25T07:01:06.410Z,90.80
2018-12-25T07:03:35.958Z,90.90
2018-12-25T07:06:05.242Z,90.90
2018-12-25T07:08:34.482Z,91.00
2018-12-25T07:11:03.758Z,91.00
2018-12-25T07:13:33.002Z,91.10
2018-12-25T07:16:02.287Z,91.10
2018-12-25T07:18:31.517Z,91.10
2018-12-25T07:21:00.733Z,91.20
2018-12-25T07:23:29.980Z,91.30
2018-12-25T07:25:59.241Z,91.30
2018-12-25T07:28:28.497Z,91.40
2018-12-25T07:30:57.870Z,91.50
2018-12-25T07:33:27.146Z,91.50
2018-12-25T07:35:56.440Z,91.50
2018-12-25T07:38:25.685Z,91.50
2018-12-25T07:40:54.976Z,91.60
2018-12-25T07:43:24.204Z,91.60
2018-12-25T07:45:53.504Z,91.70
2018-12-25T07:48:22.802Z,91.80
2018-12-25T07:50:52.040Z,91.80
2018-12-25T07:53:21.332Z,91.90
2018-12-25T07:55:50.549Z,91.90
2018-12-25T07:58:19.900Z,91.90
2018-12-25T08:00:49.173Z,92.00
2018-12-25T08:03:18.425Z,92.00
2018-12-25T08:05:47.697Z,92.00
2018-12-25T08:08:17.036Z,92.10
2018-12-25T08:10:46.315Z,92.20
2018-12-25T08:13:15.636Z,92.20
2018-12-25T08:15:44.916Z,92.20
2018-12-25T08:18:14.139Z,92.30
2018-12-25T08:20:43.407Z,92.30
2018-12-25T08:23:12.748Z,92.30
2018-12-25T08:25:42.019Z,92.40
2018-12-25T08:28:11.348Z,92.50
2018-12-25T08:30:40.512Z,92.60
2018-12-25T08:33:09.780Z,92.60
2018-12-25T08:35:39.056Z,92.70
2018-12-25T08:38:08.616Z,92.70
2018-12-25T08:40:37.899Z,92.80
2018-12-25T08:43:07.135Z,92.80
2018-12-25T08:45:36.363Z,92.90
2018-12-25T08:48:05.629Z,92.90
2018-12-25T08:50:35.480Z,93.00
2018-12-25T08:53:04.870Z,93.00
2018-12-25T08:55:34.103Z,93.00
2018-12-25T08:58:03.367Z,93.10
2018-12-25T09:00:32.591Z,93.20
2018-12-25T09:03:01.867Z,93.60
2018-12-25T09:05:31.140Z,93.30
2018-12-25T09:08:00.656Z,93.30
2018-12-25T09:10:29.915Z,93.30
2018-12-25T09:12:59.191Z,93.30
2018-12-25T09:15:28.418Z,93.40
2018-12-25T09:17:57.703Z,93.40
2018-12-25T09:20:26.966Z,93.50
2018-12-25T09:22:56.185Z,93.30
2018-12-25T09:25:25.428Z,93.50
2018-12-25T09:27:54.727Z,93.50
2018-12-25T09:30:23.954Z,93.60
2018-12-25T09:32:53.223Z,93.60
2018-12-25T09:35:22.495Z,93.60
2018-12-25T09:37:51.787Z,93.70
2018-12-25T09:40:21.015Z,93.70
2018-12-25T09:42:50.273Z,93.70
2018-12-25T09:45:19.598Z,93.70
2018-12-25T09:47:48.842Z,93.70
2018-12-25T09:50:18.083Z,93.70
2018-12-25T09:52:47.349Z,93.80
2018-12-25T09:55:16.679Z,93.80
2018-12-25T09:57:45.946Z,93.90
2018-12-25T10:00:15.094Z,93.90
2018-12-25T10:02:44.242Z,93.90
2018-12-25T10:05:13.498Z,93.90
2018-12-25T10:07:42.742Z,93.90
2018-12-25T10:10:12.000Z,93.90
2018-12-25T10:12:41.218Z,94.00
2018-12-25T10:15:10.482Z,94.00
2018-12-25T10:17:39.710Z,94.00
2018-12-25T10:20:08.986Z,94.00
2018-12-25T10:22:38.133Z,94.00
2018-12-25T10:25:07.294Z,94.10
2018-12-25T10:27:36.754Z,94.10
2018-12-25T10:30:06.058Z,94.10
2018-12-25T10:32:35.334Z,94.10
2018-12-25T10:35:04.630Z,94.10
2018-12-25T10:37:33.922Z,94.10
2018-12-25T10:40:03.159Z,94.20
2018-12-25T10:42:32.513Z,94.20
2018-12-25T10:45:01.742Z,94.20
2018-12-25T10:47:31.001Z,94.20
2018-12-25T10:50:00.267Z,94.20
2018-12-25T10:52:29.489Z,94.20
2018-12-25T10:54:58.749Z,94.20
2018-12-25T10:57:27.989Z,94.20
2018-12-25T10:59:57.261Z,94.20
2018-12-25T11:02:26.489Z,94.20
2018-12-25T11:04:55.792Z,94.20
2018-12-25T11:07:25.065Z,94.20
2018-12-25T11:09:54.397Z,94.20
2018-12-25T11:12:23.705Z,94.20
2018-12-25T11:14:52.862Z,94.30
2018-12-25T11:17:22.183Z,94.30
2018-12-25T11:19:51.401Z,94.30
2018-12-25T11:22:20.637Z,94.30
2018-12-25T11:24:49.901Z,94.30
2018-12-25T11:27:19.133Z,94.30
2018-12-25T11:29:48.489Z,94.30
2018-12-25T11:32:17.717Z,94.30
2018-12-25T11:34:47.024Z,94.30
2018-12-25T11:37:16.276Z,94.40
2018-12-25T11:39:45.544Z,94.40
2018-12-25T11:42:14.785Z,94.40
2018-12-25T11:44:44.080Z,94.40
2018-12-25T11:47:13.339Z,94.40
2018-12-25T11:49:42.577Z,94.30
2018-12-25T11:52:11.845Z,94.40
2018-12-25T11:54:41.064Z,94.40
2018-12-25T11:57:10.411Z,94.40
2018-12-25T11:59:39.645Z,94.40
2018-12-25T12:02:16.876Z,94.40
2018-12-25T12:04:39.848Z,94.40
2018-12-25T12:07:09.168Z,94.40
2018-12-25T12:09:38.416Z,94.40
2018-12-25T12:12:07.740Z,94.40
2018-12-25T12:14:37.008Z,94.50
2018-12-25T12:17:06.372Z,94.40
2018-12-25T12:19:35.653Z,94.80
2018-12-25T12:22:04.868Z,94.40
2018-12-25T12:24:34.124Z,94.50
2018-12-25T12:27:03.598Z,94.40
2018-12-25T12:29:32.929Z,94.50
2018-12-25T12:32:02.164Z,94.50
2018-12-25T12:34:31.425Z,94.50
2018-12-25T12:37:00.700Z,94.50
2018-12-25T12:39:30.016Z,94.50
2018-12-25T12:41:59.244Z,94.60
2018-12-25T12:44:28.524Z,94.60
2018-12-25T12:46:57.808Z,94.60
2018-12-25T12:49:27.160Z,94.60
2018-12-25T12:51:58.276Z,94.60
2018-12-25T12:54:27.835Z,94.60
2018-12-25T12:56:57.068Z,94.60
2018-12-25T12:59:26.323Z,94.60
2018-12-25T13:01:55.556Z,94.60
2018-12-25T13:04:24.788Z,94.60
2018-12-25T13:06:54.055Z,94.60
2018-12-25T13:09:23.279Z,94.60
2018-12-25T13:11:52.498Z,94.60
2018-12-25T13:14:21.766Z,94.60
2018-12-25T13:16:50.987Z,94.60
2018-12-25T13:19:20.315Z,94.70
2018-12-25T13:21:49.595Z,94.60
2018-12-25T13:24:18.847Z,94.60
2018-12-25T13:26:48.102Z,94.70
2018-12-25T13:29:17.303Z,94.60
2018-12-25T13:31:46.562Z,94.60
2018-12-25T13:34:15.783Z,94.60
2018-12-25T13:36:45.082Z,94.70
2018-12-25T13:39:14.314Z,94.70
2018-12-25T13:41:43.578Z,94.70
2018-12-25T13:44:13.607Z,94.70
2018-12-25T13:46:51.330Z,94.70
2018-12-25T13:49:13.786Z,94.70
2018-12-25T13:51:42.928Z,94.70
2018-12-25T13:54:12.162Z,94.70
2018-12-25T13:56:41.429Z,94.80
2018-12-25T13:59:10.654Z,94.70
2018-12-25T14:01:39.930Z,94.80
2018-12-25T14:04:09.247Z,94.80
2018-12-25T14:06:38.837Z,94.70
2018-12-25T14:09:08.607Z,94.70
2018-12-25T14:11:37.878Z,94.70
2018-12-25T14:14:07.098Z,94.70
2018-12-25T14:16:36.378Z,94.70
2018-12-25T14:19:05.626Z,94.70
2018-12-25T14:21:34.842Z,94.70
2018-12-25T14:24:04.178Z,94.60
2018-12-25T14:26:33.661Z,94.60
2018-12-25T14:31:35.958Z,94.60
2018-12-25T14:34:05.175Z,94.60
2018-12-25T14:36:34.469Z,94.50
2018-12-25T14:39:04.995Z,94.50
2018-12-25T14:41:34.254Z,94.50
2018-12-25T14:44:05.407Z,94.50
2018-12-25T14:46:34.401Z,94.50
2018-12-25T14:49:03.713Z,94.50
2018-12-25T14:51:32.985Z,94.80
2018-12-25T14:54:02.241Z,94.50
2018-12-25T14:56:31.518Z,94.50
2018-12-25T14:59:00.749Z,94.50
2018-12-25T15:01:30.013Z,94.50
2018-12-25T15:03:59.277Z,94.60
2018-12-25T15:06:28.537Z,94.60
2018-12-25T15:08:57.811Z,94.60
2018-12-25T15:11:27.037Z,94.60
2018-12-25T15:13:56.584Z,94.60
2018-12-25T15:16:26.101Z,94.60
2018-12-25T15:18:55.444Z,94.60
2018-12-25T15:21:24.712Z,94.60
2018-12-25T15:23:53.949Z,94.70
2018-12-25T15:26:23.233Z,94.70
2018-12-25T15:28:52.530Z,94.70
2018-12-25T15:31:21.901Z,94.70
2018-12-25T15:33:51.181Z,94.80
2018-12-25T15:36:20.436Z,94.80
2018-12-25T15:38:49.697Z,94.80
2018-12-25T15:41:18.956Z,94.80
2018-12-25T15:43:48.233Z,94.80
2018-12-25T15:46:17.461Z,94.80
2018-12-25T15:48:46.816Z,94.90
2018-12-25T15:51:16.060Z,94.80
2018-12-25T15:53:45.305Z,94.80
2018-12-25T15:56:14.592Z,94.80
2018-12-25T15:58:43.924Z,94.80
2018-12-25T16:01:13.189Z,94.90
2018-12-25T16:03:42.468Z,94.90
2018-12-25T16:06:11.729Z,94.80
2018-12-25T16:08:44.642Z,95.10
2018-12-25T16:11:13.876Z,94.80
2018-12-25T16:13:43.101Z,94.80
2018-12-25T16:16:12.365Z,94.80
2018-12-25T16:18:41.731Z,94.80
2018-12-25T16:21:11.020Z,94.90
2018-12-25T16:23:45.399Z,94.80
2018-12-25T16:26:11.441Z,94.80
2018-12-25T16:28:40.709Z,94.90
2018-12-25T16:31:10.033Z,94.80
2018-12-25T16:33:39.401Z,94.80
2018-12-25T16:36:08.849Z,94.90
2018-12-25T16:38:38.341Z,94.80
2018-12-25T16:41:07.685Z,94.80
2018-12-25T16:43:36.928Z,94.80
2018-12-25T16:46:06.272Z,94.80
2018-12-25T16:48:35.560Z,94.80
2018-12-25T16:51:04.788Z,94.80
2018-12-25T16:53:34.052Z,94.80
2018-12-25T16:56:03.324Z,94.80
2018-12-25T16:58:32.597Z,94.80
2018-12-25T17:01:01.876Z,94.80
2018-12-25T17:03:31.152Z,94.80
2018-12-25T17:06:00.372Z,94.70
2018-12-25T17:08:29.604Z,94.70
2018-12-25T17:10:58.978Z,94.70
2018-12-25T17:13:28.205Z,95.00
2018-12-25T17:15:57.477Z,94.80
2018-12-25T17:18:26.728Z,94.80
2018-12-25T17:20:56.052Z,94.80
2018-12-25T17:23:25.360Z,94.80
2018-12-25T17:25:54.596Z,94.80
2018-12-25T17:28:27.779Z,94.80
2018-12-25T17:30:54.775Z,94.80
2018-12-25T17:33:24.046Z,94.80
2018-12-25T17:35:53.299Z,94.80
2018-12-25T17:38:22.605Z,94.80
2018-12-25T17:40:51.823Z,94.80
2018-12-25T17:43:21.084Z,94.80
2018-12-25T17:45:50.303Z,94.80
2018-12-25T17:48:19.569Z,94.80
2018-12-25T17:50:48.823Z,94.80
2018-12-25T17:53:18.075Z,94.80
2018-12-25T17:55:47.359Z,94.80
2018-12-25T17:58:16.583Z,94.80
2018-12-25T18:00:46.000Z,94.80
2018-12-25T18:03:15.267Z,94.80
2018-12-25T18:05:44.623Z,94.80
2018-12-25T18:08:13.871Z,94.80
2018-12-25T18:10:43.131Z,94.90
2018-12-25T18:13:12.359Z,94.80
2018-12-25T18:15:41.623Z,94.80
2018-12-25T18:18:10.915Z,94.80
2018-12-25T18:20:40.187Z,94.80
2018-12-25T18:23:09.415Z,94.80
2018-12-25T18:25:38.711Z,94.80
2018-12-25T18:28:07.933Z,94.80
2018-12-25T18:30:37.186Z,94.80
2018-12-25T18:33:06.422Z,94.80
2018-12-25T18:35:35.675Z,94.80
2018-12-25T18:38:04.936Z,94.70
2018-12-25T18:40:34.183Z,94.80
2018-12-25T18:43:03.411Z,94.80
2018-12-25T18:45:32.671Z,94.80
2018-12-25T18:48:01.891Z,94.70
2018-12-25T18:50:33.614Z,94.70
2018-12-25T18:53:03.267Z,94.80
2018-12-25T18:55:32.538Z,94.80
2018-12-25T18:58:01.758Z,94.80
2018-12-25T19:00:31.011Z,94.80
2018-12-25T19:03:00.366Z,94.80
2018-12-25T19:05:29.590Z,94.80
2018-12-25T19:07:58.798Z,94.80
2018-12-25T19:10:28.130Z,94.80
2018-12-25T19:12:57.418Z,94.80
2018-12-25T19:15:28.158Z,94.80
2018-12-25T19:17:58.898Z,94.80
2018-12-25T19:20:28.138Z,94.80
2018-12-25T19:22:57.430Z,94.80
2018-12-25T19:25:26.654Z,94.80
2018-12-25T19:27:55.910Z,94.80
2018-12-25T19:30:26.554Z,94.70
2018-12-25T19:32:55.850Z,94.70
2018-12-25T19:35:25.118Z,94.70
2018-12-25T19:37:54.365Z,94.60
2018-12-25T19:40:23.714Z,94.80
2018-12-25T19:42:52.941Z,94.80
2018-12-25T19:45:24.256Z,94.80
2018-12-25T19:47:53.489Z,94.80
2018-12-25T19:50:24.389Z,94.80
2018-12-25T19:52:53.822Z,94.80
2018-12-25T19:55:23.058Z,94.80
2018-12-25T19:57:52.286Z,94.80
2018-12-25T20:00:21.618Z,94.80
2018-12-25T20:03:23.793Z,94.70
2018-12-25T20:06:31.874Z,94.70
2018-12-25T20:09:31.773Z,94.70
2018-12-25T20:12:40.830Z,94.70
2018-12-25T20:15:24.685Z,94.60
2018-12-25T20:18:31.057Z,94.60
2018-12-25T20:21:32.549Z,94.70
2018-12-25T20:24:44.194Z,94.60
2018-12-25T20:27:55.465Z,94.60
2018-12-25T20:31:02.705Z,94.60
2018-12-25T20:34:28.261Z,94.60
2018-12-25T20:37:47.521Z,94.60
2018-12-25T20:40:55.647Z,94.60
2018-12-25T20:44:03.145Z,94.60
2018-12-25T20:47:26.124Z,94.60
2018-12-25T20:50:33.625Z,94.60
2018-12-25T20:53:44.761Z,94.60
2018-12-25T20:56:50.680Z,94.60
2018-12-25T20:59:47.576Z,94.50
2018-12-25T21:02:58.000Z,94.50
2018-12-25T21:06:03.453Z,94.60
2018-12-25T21:09:25.825Z,94.60
2018-12-25T21:12:48.352Z,94.60
2018-12-25T21:16:13.961Z,94.50
2018-12-25T21:19:51.502Z,94.60
2018-12-25T21:23:06.709Z,94.50
2018-12-25T21:26:11.940Z,94.50
2018-12-25T21:28:41.264Z,94.50
2018-12-25T21:31:10.617Z,94.50
2018-12-25T21:33:39.905Z,94.50
2018-12-25T21:36:09.192Z,94.60
2018-12-25T21:38:39.227Z,94.50
2018-12-25T21:41:08.956Z,94.60
2018-12-25T21:43:38.308Z,94.60
2018-12-25T21:46:07.664Z,94.50
2018-12-25T21:48:36.971Z,94.50
2018-12-25T21:51:06.304Z,94.60
2018-12-25T21:53:35.767Z,94.60
2018-12-25T21:56:05.024Z,94.50
2018-12-25T21:58:34.986Z,94.50
2018-12-25T22:01:04.200Z,94.50
2018-12-25T22:03:33.967Z,94.50
2018-12-25T22:06:05.053Z,94.50
2018-12-25T22:08:34.263Z,94.50
2018-12-25T22:11:03.547Z,94.50
2018-12-25T22:13:32.791Z,94.50
2018-12-25T22:16:02.073Z,94.50
2018-12-25T22:18:31.320Z,94.50
2018-12-25T22:21:00.532Z,94.40
2018-12-25T22:23:29.804Z,94.40
2018-12-25T22:25:59.181Z,94.80
2018-12-25T22:28:28.411Z,94.40
2018-12-25T22:30:57.607Z,94.40
2018-12-25T22:33:26.867Z,94.40
2018-12-25T22:35:56.155Z,94.40
2018-12-25T22:38:25.407Z,94.40
2018-12-25T22:40:54.659Z,94.40
2018-12-25T22:43:23.900Z,94.30
2018-12-25T22:45:53.167Z,94.40
2018-12-25T22:48:22.411Z,94.40
2018-12-25T22:50:51.771Z,94.30
2018-12-25T22:53:21.191Z,94.30
2018-12-25T22:55:50.447Z,94.30
2018-12-25T22:58:19.706Z,94.30
2018-12-25T23:00:50.795Z,94.30
2018-12-25T23:03:20.015Z,94.30
2018-12-25T23:05:49.263Z,94.30
2018-12-25T23:08:18.607Z,94.30
2018-12-25T23:10:47.863Z,94.30
2018-12-25T23:13:17.091Z,94.00
2018-12-25T23:15:46.363Z,94.30
2018-12-25T23:18:15.661Z,94.30
2018-12-25T23:20:44.908Z,94.20
2018-12-25T23:23:14.171Z,94.30
2018-12-25T23:25:44.633Z,94.30
2018-12-25T23:28:14.098Z,94.30
2018-12-25T23:30:43.355Z,94.30
2018-12-25T23:33:12.506Z,94.30
2018-12-25T23:35:41.752Z,94.40
2018-12-25T23:38:11.030Z,94.30
2018-12-25T23:40:41.246Z,94.30
2018-12-25T23:43:10.454Z,94.30
2018-12-25T23:45:39.742Z,94.30
2018-12-25T23:48:08.954Z,94.30
2018-12-25T23:50:38.218Z,94.30
2018-12-25T23:53:07.477Z,94.30
2018-12-25T23:55:36.814Z,94.10
2018-12-25T23:58:06.110Z,94.40
